Latest Weather Observations for Young

IDN60801

Issued at 5:42 pm EST Sunday 15 September 2019 (issued every 10 minutes, with the page automatically refreshed every 10 minutes)

About weather observations | Map of weather stations | Latest weather observations for NSW | Other Formats
Station Details ID: 073138 Name: YOUNG AIRPORT Lat: -34.25 Lon: 148.25 Height: 379.6 m
Data from the previous 72 hours. | See also: Recent months at Young
Date/Time
EST
Temp
°C
App
Temp
°C
Dew
Point
°C
Rel
Hum
%
Delta-T
°C
Wind Press
QNH
hPa
Press
MSL
hPa
Rain since
9am
mm
Dir  Spd
km/h
Gust
km/h
Spd
kts
Gust
kts
15/05:30pm 20.8 17.4 -1.7 22 9.8 NW 6 9 3 5 1019.6 1019.8 0.0
15/05:00pm 22.4 17.7 -4.6 16 11.3 NW 11 15 6 8 1019.7 1019.9 0.0
15/04:30pm 23.7 19.7 -5.3 14 12.2 W 7 13 4 7 1019.6 1019.8 0.0
15/04:00pm 23.9 20.1 -3.4 16 11.9 WSW 7 15 4 8 1019.6 1019.8 0.0
15/03:30pm 23.8 18.9 -3.5 16 11.9 W 13 20 7 11 1019.9 1020.1 0.0
15/03:00pm 23.6 19.0 -3.7 16 11.8 SW 11 17 6 9 1020.3 1020.4 0.0
15/02:30pm 23.0 17.4 -5.9 14 11.9 WSW 15 24 8 13 1020.8 1020.9 0.0
15/02:00pm 23.4 18.3 -5.6 14 12.0 W 13 19 7 10 1021.1 1021.3 0.0
15/01:30pm 22.9 17.3 -6.9 13 12.0 W 15 24 8 13 1021.6 1021.8 0.0
15/01:00pm 23.5 18.7 -6.5 13 12.2 W 11 20 6 11 1021.7 1021.9 0.0
15/12:30pm 23.2 18.5 -4.8 15 11.8 NW 11 20 6 11 1021.9 1022.1 0.0
15/12:00pm 22.3 18.2 -3.1 18 10.9 WSW 9 17 5 9 1022.3 1022.5 0.0
15/11:30am 22.0 18.4 -2.0 20 10.6 SW 7 11 4 6 1022.8 1023.0 0.0
15/11:00am 20.9 17.6 -1.0 23 9.7 N 6 9 3 5 1023.3 1023.5 0.0
15/10:30am 19.4 17.0 -0.1 27 8.7 ESE 2 7 1 4 1023.6 1023.8 0.0
15/10:00am 18.1 15.6 1.6 33 7.5 NW 4 9 2 5 1024.0 1024.2 0.0
15/09:30am 16.3 14.2 3.7 43 5.9 NNE 4 7 2 4 1024.3 1024.5 0.0
15/09:00am 12.8 10.7 4.0 55 4.0 S 4 7 2 4 1024.4 1024.6 0.0
15/08:30am 10.4 7.8 3.4 62 3.1 SSE 6 7 3 4 1024.5 1024.7 0.0
15/08:00am 7.4 5.0 5.2 86 1.0 SSE 7 9 4 5 1024.5 1024.7 0.0
15/07:30am 4.0 1.5 3.9 99 0.0 SSW 6 7 3 4 1024.3 1024.5 0.0
15/07:00am 1.2 -2.3 1.2 100 0.0 SSW 9 9 5 5 1024.1 1024.3 0.0
15/06:30am -1.1 -4.6 -1.2 99 0.0 S 7 9 4 5 1024.1 1024.3 0.0
15/06:00am -1.4 -4.7 -1.5 99 0.0 SSW 6 9 3 5 1024.0 1024.2 0.0
15/05:30am -1.2 -4.5 -1.3 99 0.0 SSW 6 7 3 4 1023.6 1023.8 0.0
15/05:00am -1.6 -5.1 -1.7 99 0.0 S 7 9 4 5 1023.6 1023.8 0.0
15/04:30am -1.3 -4.6 -1.4 99 0.0 S 6 7 3 4 1023.5 1023.7 0.0
15/04:00am -1.2 -4.5 -1.3 99 0.0 SSW 6 7 3 4 1023.4 1023.6 0.0
15/03:30am -1.1 -4.4 -1.2 99 0.0 S 6 7 3 4 1023.1 1023.2 0.0
15/03:00am -1.1 -4.4 -1.5 97 0.1 S 6 9 3 5 1023.4 1023.6 0.0
15/02:30am -0.5 -3.9 -0.9 97 0.1 S 7 9 4 5 1023.6 1023.8 0.0
15/02:00am -0.3 -3.1 -0.7 97 0.1 SW 4 7 2 4 1023.6 1023.8 0.0
15/01:30am -0.1 -3.4 -0.9 94 0.3 SW 6 6 3 3 1023.7 1023.9 0.0
15/01:00am 0.6 -1.8 -0.4 93 0.4 SSE 2 6 1 3 1024.0 1024.2 0.0
15/12:30am 0.9 -2.3 -0.4 91 0.5 SSW 6 9 3 5 1024.1 1024.3 0.0
15/12:00am 1.7 -1.7 -0.4 86 0.8 S 7 9 4 5 1024.2 1024.4 0.0
 
Date/Time
EST
Temp
°C
App
Temp
°C
Dew
Point
°C
Rel
Hum
%
Delta-T
°C
Wind Press
QNH
hPa
Press
MSL
hPa
Rain since
9am
mm
Dir  Spd
km/h
Gust
km/h
Spd
kts
Gust
kts
14/11:30pm 1.9 -0.5 -0.2 86 0.8 SSW 2 7 1 4 1024.2 1024.4 0.0
14/11:00pm 2.4 0.3 -0.5 81 1.1 CALM 0 0 0 0 1024.3 1024.5 0.0
14/10:30pm 3.4 0.0 -0.4 76 1.4 SW 7 9 4 5 1024.3 1024.5 0.0
14/10:00pm 3.5 1.1 -0.3 76 1.4 SSW 2 7 1 4 1024.5 1024.7 0.0
14/09:30pm 4.4 1.1 -1.0 68 2.0 WSW 6 9 3 5 1024.4 1024.6 0.0
14/09:00pm 6.1 2.9 -0.4 63 2.5 SW 6 7 3 4 1024.4 1024.6 0.0
14/08:30pm 7.4 5.4 -0.1 59 3.0 CALM 0 6 0 3 1024.4 1024.6 0.0
14/08:00pm 7.7 4.4 0.2 59 3.0 SW 7 11 4 6 1024.0 1024.2 0.0
14/07:30pm 7.9 5.5 -0.3 56 3.3 WSW 2 7 1 4 1023.8 1024.0 0.0
14/07:00pm 9.3 5.6 -0.3 51 3.9 SW 9 15 5 8 1023.6 1023.8 0.0
14/06:30pm 11.9 7.0 -0.6 42 5.2 WSW 15 19 8 10 1023.2 1023.3 0.0
14/06:00pm 14.9 9.5 -1.6 32 6.8 WSW 17 24 9 13 1022.8 1023.0 0.0
14/05:30pm 17.5 12.4 -2.2 26 8.3 SW 15 19 8 10 1022.7 1022.9 0.0
14/05:00pm 19.4 13.3 -3.5 21 9.5 SW 19 24 10 13 1022.5 1022.7 0.0
14/04:30pm 20.4 14.1 -4.0 19 10.2 WSW 20 32 11 17 1022.4 1022.6 0.0
14/04:00pm 21.2 15.2 -3.3 19 10.4 WSW 19 30 10 16 1022.2 1022.4 0.0
14/03:30pm 21.1 15.0 -2.7 20 10.3 WSW 20 28 11 15 1022.5 1022.7 0.0
14/03:00pm 21.4 15.5 -2.5 20 10.3 WSW 19 28 10 15 1022.4 1022.6 0.0
14/02:30pm 21.0 14.8 -3.5 19 10.4 WSW 20 30 11 16 1022.6 1022.8 0.0
14/02:00pm 20.2 13.4 -2.2 22 9.6 SW 24 32 13 17 1022.9 1023.1 0.0
14/01:30pm 20.5 15.6 -0.2 25 9.3 SW 15 20 8 11 1023.3 1023.5 0.0
14/01:00pm 19.7 15.0 3.4 34 7.8 SW 17 26 9 14 1023.6 1023.8 0.0
14/12:30pm 18.5 13.1 2.4 34 7.5 WSW 20 30 11 16 1023.9 1024.1 0.0
14/12:00pm 18.5 13.3 2.4 34 7.5 WSW 19 28 10 15 1024.2 1024.4 0.0
14/11:30am 17.5 11.7 0.2 31 7.7 WSW 20 28 11 15 1024.5 1024.7 0.0
14/11:00am 16.6 12.1 1.9 37 6.7 SW 15 22 8 12 1024.8 1025.0 0.0
14/10:30am 16.0 11.7 3.1 42 6.0 WSW 15 20 8 11 1024.9 1025.1 0.0
14/10:00am 16.0 11.6 4.7 47 5.4 SW 17 20 9 11 1025.1 1025.3 0.0
14/09:30am 15.2 11.0 4.0 47 5.3 SSW 15 22 8 12 1025.2 1025.4 0.0
14/09:00am 12.5 11.1 5.7 63 3.2 ENE 2 6 1 3 1025.2 1025.4 0.0
14/08:30am 9.2 8.1 5.2 76 1.8 CALM 0 0 0 0 1025.2 1025.4 0.0
14/08:00am 5.5 4.1 3.8 89 0.7 CALM 0 0 0 0 1025.2 1025.4 0.0
14/07:30am 2.7 0.0 2.6 99 0.0 S 6 7 3 4 1025.1 1025.3 0.0
14/07:00am 0.4 -2.7 0.3 99 0.0 S 6 7 3 4 1024.7 1024.9 0.0
14/06:30am -1.0 -4.3 -1.1 99 0.0 S 6 7 3 4 1024.5 1024.7 0.0
14/06:00am -0.7 -3.9 -0.8 99 0.0 S 6 7 3 4 1024.1 1024.3 0.0
14/05:30am -1.0 -4.3 -1.1 99 0.0 SSE 6 7 3 4 1023.9 1024.1 0.0
14/05:00am -1.1 -4.4 -1.2 99 0.0 WSW 6 9 3 5 1023.5 1023.7 0.0
14/04:30am -0.6 -2.7 -0.7 99 0.0 CALM 0 0 0 0 1023.4 1023.6 0.0
14/04:00am -0.5 -3.3 -0.6 99 0.0 S 4 9 2 5 1023.4 1023.6 0.0
14/03:30am -0.1 -2.1 -0.2 99 0.0 CALM 0 0 0 0 1023.2 1023.3 0.0
14/03:00am 0.2 -1.8 0.1 99 0.0 CALM 0 0 0 0 1022.9 1023.1 0.0
14/02:30am 0.4 -1.5 0.3 99 0.0 CALM 0 0 0 0 1023.1 1023.2 0.0
14/02:00am 1.0 -0.8 0.9 99 0.0 CALM 0 0 0 0 1023.2 1023.3 0.0
14/01:30am 0.9 -1.4 0.3 96 0.2 S 2 6 1 3 1023.4 1023.6 0.0
14/01:00am 1.6 -1.4 0.9 95 0.3 SSW 6 6 3 3 1023.6 1023.8 0.0
14/12:30am 1.6 -1.6 0.7 94 0.3 SSE 7 9 4 5 1023.8 1024.0 0.0
14/12:00am 2.6 0.9 1.7 94 0.4 CALM 0 0 0 0 1023.7 1023.9 0.0
 
Date/Time
EST
Temp
°C
App
Temp
°C
Dew
Point
°C
Rel
Hum
%
Delta-T
°C
Wind Press
QNH
hPa
Press
MSL
hPa
Rain since
9am
mm
Dir  Spd
km/h
Gust
km/h
Spd
kts
Gust
kts
13/11:30pm 2.7 0.9 1.2 90 0.6 CALM 0 0 0 0 1023.9 1024.1 0.0
13/11:00pm 3.3 1.6 1.8 90 0.6 CALM 0 0 0 0 1023.9 1024.1 0.0
13/10:30pm 3.6 1.9 1.6 87 0.8 CALM 0 6 0 3 1024.1 1024.3 0.0
13/10:00pm 4.1 1.6 1.5 83 1.0 S 4 7 2 4 1024.1 1024.3 0.0
13/09:30pm 5.5 3.9 2.2 79 1.4 CALM 0 0 0 0 1023.9 1024.1 0.0
13/09:00pm 6.8 4.2 3.4 79 1.5 SE 6 7 3 4 1023.9 1024.1 0.0
13/08:30pm 7.5 5.9 2.2 69 2.2 CALM 0 0 0 0 1023.7 1023.9 0.0
13/08:00pm 8.3 5.5 2.1 65 2.6 WSW 6 7 3 4 1023.4 1023.6 0.0
13/07:30pm 8.2 5.7 1.4 62 2.8 SSW 4 7 2 4 1023.2 1023.3 0.0
13/07:00pm 10.4 7.2 0.7 51 4.1 S 7 9 4 5 1022.9 1023.1 0.0
13/06:30pm 12.6 9.0 0.7 44 5.1 SW 9 11 5 6 1022.6 1022.8 0.0
13/06:00pm 15.2 11.0 -0.9 33 6.8 SW 11 15 6 8 1022.7 1022.9 0.0
13/05:30pm 17.9 13.3 -0.8 28 8.1 SW 13 17 7 9 1022.3 1022.5 0.0
13/05:00pm 19.6 14.1 -2.1 23 9.3 WSW 17 24 9 13 1022.1 1022.3 0.0
13/04:30pm 20.4 14.1 -4.0 19 10.2 WSW 20 30 11 16 1021.9 1022.1 0.0
13/04:00pm 21.4 15.9 -1.8 21 10.2 WSW 17 28 9 15 1021.4 1021.6 0.0
13/03:30pm 21.4 16.1 -0.6 23 9.9 WSW 17 26 9 14 1021.2 1021.4 0.0
13/03:00pm 21.3 15.9 -1.3 22 10.0 WSW 17 22 9 12 1021.3 1021.5 0.0
13/02:30pm 20.8 15.2 -3.0 20 10.2 W 17 24 9 13 1021.6 1021.8 0.0
13/02:00pm 21.7 16.5 -2.9 19 10.6 WNW 15 24 8 13 1021.8 1022.0 0.0
13/01:30pm 20.8 15.8 -1.1 23 9.7 WNW 15 20 8 11 1022.3 1022.5 0.0
13/01:00pm 20.4 15.8 -1.4 23 9.6 WNW 13 22 7 12 1022.4 1022.6 0.0
13/12:30pm 20.1 16.0 -0.5 25 9.2 WNW 11 20 6 11 1022.8 1023.0 0.0
13/12:00pm 19.6 15.5 0.1 27 8.8 NW 11 17 6 9 1023.1 1023.2 0.0
13/11:30am 18.6 14.8 2.0 33 7.7 NNE 11 17 6 9 1023.5 1023.7 0.0
13/11:00am 18.8 16.0 2.2 33 7.7 NNE 6 9 3 5 1023.8 1024.0 0.0
13/10:30am 17.8 15.2 4.4 41 6.5 N 7 13 4 7 1024.0 1024.2 0.0
13/10:00am 16.2 13.9 4.6 46 5.6 S 6 7 3 4 1024.0 1024.2 0.0
13/09:30am 15.4 13.1 5.9 53 4.7 ESE 7 11 4 6 1024.1 1024.3 0.0
13/09:00am 14.1 12.8 6.0 58 3.9 SSE 2 7 1 4 1024.2 1024.4 0.0
13/08:30am 11.3 10.0 6.0 70 2.5 SSE 2 7 1 4 1024.2 1024.4 0.0
13/08:00am 7.5 6.2 6.1 91 0.6 S 2 7 1 4 1024.0 1024.2 0.0
13/07:30am 4.4 1.8 4.3 99 0.0 S 7 9 4 5 1023.7 1023.9 0.0
13/07:00am 1.3 -1.8 1.3 100 0.0 SSE 7 9 4 5 1023.7 1023.9 0.0
13/06:30am -0.9 -4.2 -1.0 99 0.0 SSW 6 7 3 4 1023.4 1023.6 0.0
13/06:00am 0.0 -2.8 -0.1 99 0.0 WNW 4 7 2 4 1023.2 1023.3 0.0
13/05:30am 0.6 -2.6 0.5 99 0.0 N 7 9 4 5 1023.2 1023.3 0.0
13/05:00am 1.3 -1.6 1.2 99 0.0 S 6 7 3 4 1022.8 1023.0 0.0
13/04:30am 0.8 -2.4 0.7 99 0.0 SW 7 9 4 5 1022.5 1022.7 0.0
13/04:00am 1.0 -2.0 0.9 99 0.0 S 6 7 3 4 1022.5 1022.7 0.0
13/03:30am 2.1 -0.7 2.0 99 0.0 S 6 7 3 4 1022.3 1022.5 0.0
13/03:00am 1.9 0.1 1.5 97 0.2 CALM 0 0 0 0 1022.0 1022.2 0.0
13/02:30am 2.3 0.5 1.3 93 0.4 CALM 0 0 0 0 1022.0 1022.2 0.0
13/02:00am 3.5 1.9 2.5 93 0.4 CALM 0 0 0 0 1021.6 1021.8 0.0
13/01:30am 4.2 2.2 2.2 87 0.8 W 2 7 1 4 1021.5 1021.7 0.0
13/01:00am 5.7 2.6 3.5 86 0.9 N 9 11 5 6 1021.5 1021.7 0.0
13/12:30am 5.4 2.5 1.7 77 1.5 SSW 6 9 3 5 1021.2 1021.4 0.0
13/12:00am 8.6 4.6 3.0 68 2.4 SSW 13 15 7 8 1020.9 1021.0 0.0
 
Date/Time
EST
Temp
°C
App
Temp
°C
Dew
Point
°C
Rel
Hum
%
Delta-T
°C
Wind Press
QNH
hPa
Press
MSL
hPa
Rain since
9am
mm
Dir  Spd
km/h
Gust
km/h
Spd
kts
Gust
kts
12/11:30pm 9.1 5.1 2.7 64 2.8 SW 13 17 7 9 1020.9 1021.0 0.0
12/11:00pm 9.3 4.9 2.6 63 2.9 SSW 15 19 8 10 1020.7 1020.8 0.0
12/10:30pm 10.8 7.1 2.1 55 3.8 SSW 11 13 6 7 1020.4 1020.5 0.0
12/10:00pm 11.2 7.8 2.0 53 4.0 SSW 9 13 5 7 1020.3 1020.4 0.0
12/09:30pm 11.1 7.6 3.4 59 3.5 SSW 11 15 6 8 1020.0 1020.2 0.0
12/09:00pm 5.9 3.2 2.9 81 1.3 SSE 6 9 3 5 1020.3 1020.4 0.0
12/08:30pm 7.3 4.1 3.0 74 1.8 SW 9 20 5 11 1020.1 1020.3 0.0
12/08:00pm 5.7 3.9 3.2 84 1.1 SSW 2 7 1 4 1019.0 1019.2 0.0
12/07:30pm 5.7 4.0 1.8 76 1.6 CALM 0 0 0 0 1019.2 1019.4 0.0
12/07:00pm 7.9 5.6 3.0 71 2.1 SSW 4 7 2 4 1019.5 1019.7 0.0
12/06:30pm 9.8 8.2 2.6 61 3.1 CALM 0 0 0 0 1019.3 1019.5 0.0
12/06:00pm 13.1 10.4 2.9 50 4.6 WNW 6 6 3 3 1019.4 1019.6 0.0

Other formats

Comma delimited format used in spreadsheet applications
http://www.bom.gov.au/fwo/IDN60801/IDN60801.94712.axf

JavaScript Object Notation format (JSON) in row-major order
http://www.bom.gov.au/fwo/IDN60801/IDN60801.94712.json

Data quality

Most of these data are generated automatically and are frequently updated. Quality checks on data are not normally performed. It is possible for incorrect values to appear. Refer to information at About Latest Weather Observations and please check the disclaimer before using these data.